createdAt,value
2019-02-14T00:01:43.121Z,8.13
2019-02-14T00:04:25.036Z,7.60
2019-02-14T00:07:06.814Z,6.90
2019-02-14T00:09:49.178Z,6.93
2019-02-14T00:12:31.209Z,7.07
2019-02-14T00:15:13.099Z,7.93
2019-02-14T00:17:55.197Z,7.90
2019-02-14T00:20:37.182Z,7.10
2019-02-14T00:23:19.330Z,6.60
2019-02-14T00:26:01.479Z,7.43
2019-02-14T00:28:43.742Z,5.83
2019-02-14T00:31:25.398Z,5.67
2019-02-14T00:34:07.400Z,5.10
2019-02-14T00:36:49.714Z,6.00
2019-02-14T00:39:31.776Z,6.10
2019-02-14T00:42:13.938Z,6.30
2019-02-14T00:44:55.810Z,7.27
2019-02-14T00:47:37.706Z,6.60
2019-02-14T00:50:20.011Z,7.07
2019-02-14T00:53:02.311Z,7.13
2019-02-14T00:55:44.602Z,7.27
2019-02-14T00:58:25.062Z,6.70
2019-02-14T01:01:14.466Z,6.97
2019-02-14T01:03:57.711Z,6.13
2019-02-14T01:06:39.951Z,6.30
2019-02-14T01:09:21.790Z,6.43
2019-02-14T01:12:04.562Z,5.50
2019-02-14T01:14:47.054Z,6.27
2019-02-14T01:17:29.114Z,5.60
2019-02-14T01:20:11.528Z,6.30
2019-02-14T01:22:53.414Z,6.00
2019-02-14T01:25:35.392Z,6.00
2019-02-14T01:28:17.423Z,6.33
2019-02-14T01:30:59.373Z,5.70
2019-02-14T01:33:41.294Z,5.40
2019-02-14T01:36:23.046Z,5.40
2019-02-14T01:39:04.378Z,5.53
2019-02-14T01:41:53.642Z,5.90
2019-02-14T01:44:25.462Z,5.60
2019-02-14T01:47:16.343Z,5.23
2019-02-14T01:49:59.661Z,5.40
2019-02-14T01:52:42.038Z,5.33
2019-02-14T01:55:24.246Z,5.67
2019-02-14T01:58:06.778Z,5.60
2019-02-14T02:00:49.028Z,5.60
2019-02-14T02:03:31.098Z,4.77
2019-02-14T02:06:13.306Z,4.90
2019-02-14T02:08:55.062Z,4.80
2019-02-14T02:11:36.717Z,4.80
2019-02-14T02:14:18.367Z,5.30
2019-02-14T02:17:03.014Z,4.57
2019-02-14T02:19:45.479Z,4.40
2019-02-14T02:22:27.592Z,4.73
2019-02-14T02:25:09.387Z,4.30
2019-02-14T02:27:39.826Z,4.20
2019-02-14T02:30:23.803Z,4.20
2019-02-14T02:33:05.808Z,4.07
2019-02-14T02:35:47.795Z,4.53
2019-02-14T02:38:29.750Z,4.63
2019-02-14T02:41:11.718Z,4.77
2019-02-14T02:43:53.466Z,4.77
2019-02-14T02:46:35.339Z,5.57
2019-02-14T02:49:17.079Z,5.10
2019-02-14T02:51:58.850Z,4.80
2019-02-14T02:54:40.698Z,4.80
2019-02-14T02:57:22.574Z,4.80
2019-02-14T03:00:04.437Z,4.20
2019-02-14T03:02:47.051Z,4.43
2019-02-14T03:05:28.863Z,5.20
2019-02-14T03:08:10.534Z,5.60
2019-02-14T03:10:54.122Z,4.90
2019-02-14T03:13:36.596Z,5.47
2019-02-14T03:16:18.322Z,5.77
2019-02-14T03:19:00.857Z,5.77
2019-02-14T03:21:42.526Z,5.77
2019-02-14T03:24:24.650Z,5.73
2019-02-14T03:27:06.627Z,4.83
2019-02-14T03:29:48.270Z,4.80
2019-02-14T03:35:52.018Z,3.70
2019-02-14T03:38:33.894Z,3.87
2019-02-14T03:41:15.778Z,4.60
2019-02-14T03:43:58.110Z,4.00
2019-02-14T03:46:40.338Z,3.70
2019-02-14T03:49:22.008Z,4.00
2019-02-14T03:52:03.959Z,4.10
2019-02-14T03:54:46.538Z,3.77
2019-02-14T03:57:28.574Z,3.73
2019-02-14T04:00:10.494Z,3.23
2019-02-14T04:02:52.730Z,3.30
2019-02-14T04:05:34.706Z,3.20
2019-02-14T04:08:16.867Z,3.10
2019-02-14T04:10:58.843Z,3.03
2019-02-14T04:13:41.190Z,3.07
2019-02-14T04:16:22.878Z,2.97
2019-02-14T04:19:05.318Z,2.90
2019-02-14T04:21:46.970Z,2.77
2019-02-14T04:24:28.892Z,2.87
2019-02-14T04:27:10.966Z,2.90
2019-02-14T04:29:52.558Z,2.80
2019-02-14T04:32:34.502Z,2.33
2019-02-14T04:35:16.563Z,2.67
2019-02-14T04:37:58.151Z,3.40
2019-02-14T04:40:40.371Z,3.10
2019-02-14T04:43:22.943Z,3.53
2019-02-14T04:46:04.828Z,5.90
2019-02-14T04:48:46.591Z,5.83
2019-02-14T04:51:28.678Z,6.10
2019-02-14T04:54:10.422Z,18.10
2019-02-14T04:56:52.630Z,9.10
2019-02-14T04:59:34.556Z,5.53
2019-02-14T05:02:17.092Z,7.53
2019-02-14T05:04:58.886Z,6.43
2019-02-14T05:07:40.689Z,6.67
2019-02-14T05:10:22.583Z,24.70
2019-02-14T05:13:06.073Z,28.37
2019-02-14T05:15:47.895Z,11.97
2019-02-14T05:18:37.163Z,16.03
2019-02-14T05:21:08.990Z,16.10
2019-02-14T05:23:52.270Z,8.83
2019-02-14T05:26:22.728Z,23.00
2019-02-14T05:29:19.230Z,19.90
2019-02-14T05:32:02.320Z,19.63
2019-02-14T05:34:44.743Z,11.93
2019-02-14T05:37:26.409Z,12.27
2019-02-14T05:40:08.362Z,14.67
2019-02-14T05:42:38.691Z,9.57
2019-02-14T05:45:11.211Z,7.70
2019-02-14T05:47:53.175Z,7.67
2019-02-14T05:50:35.078Z,13.47
2019-02-14T05:53:17.124Z,11.37
2019-02-14T05:55:58.958Z,14.87
2019-02-14T05:58:40.819Z,11.70
2019-02-14T06:01:22.687Z,11.40
2019-02-14T06:04:04.334Z,11.87
2019-02-14T06:06:46.096Z,5.47
2019-02-14T06:09:28.251Z,9.17
2019-02-14T06:12:10.043Z,6.57
2019-02-14T06:14:52.314Z,8.90
2019-02-14T06:17:34.181Z,11.17
2019-02-14T06:20:15.902Z,7.67
2019-02-14T06:22:57.946Z,6.10
2019-02-14T06:25:40.127Z,9.27
2019-02-14T06:28:22.355Z,28.03
2019-02-14T06:31:04.256Z,12.87
2019-02-14T06:33:46.385Z,9.33
2019-02-14T06:36:28.181Z,12.93
2019-02-14T06:39:10.710Z,9.70
2019-02-14T06:41:41.053Z,7.30
2019-02-14T06:44:31.918Z,5.43
2019-02-14T06:47:15.441Z,5.23
2019-02-14T06:49:57.870Z,5.67
2019-02-14T06:52:40.446Z,5.10
2019-02-14T06:55:23.222Z,4.87
2019-02-14T06:58:05.060Z,4.77
2019-02-14T07:00:47.006Z,5.97
2019-02-14T07:03:29.053Z,7.97
2019-02-14T07:06:11.283Z,10.40
2019-02-14T07:08:53.059Z,12.20
2019-02-14T07:11:35.535Z,13.57
2019-02-14T07:14:17.397Z,12.27
2019-02-14T07:16:48.109Z,11.63
2019-02-14T07:19:38.916Z,12.20
2019-02-14T07:22:11.073Z,10.30
2019-02-14T07:25:01.911Z,9.57
2019-02-14T07:27:45.432Z,9.90
2019-02-14T07:30:27.839Z,9.20
2019-02-14T07:33:10.281Z,10.23
2019-02-14T07:35:52.186Z,12.50
2019-02-14T07:38:34.329Z,12.33
2019-02-14T07:41:16.794Z,12.87
2019-02-14T07:43:58.510Z,10.83
2019-02-14T07:46:40.737Z,10.03
2019-02-14T07:49:23.114Z,8.53
2019-02-14T07:52:05.502Z,9.23
2019-02-14T07:54:47.325Z,9.47
2019-02-14T07:57:29.497Z,8.03
2019-02-14T08:00:11.807Z,6.63
2019-02-14T08:02:54.029Z,6.27
2019-02-14T08:05:35.792Z,7.70
2019-02-14T08:08:17.646Z,7.50
2019-02-14T08:10:59.784Z,6.43
2019-02-14T08:13:41.640Z,7.17
2019-02-14T08:16:23.841Z,8.13
2019-02-14T08:19:05.946Z,6.57
2019-02-14T08:21:48.470Z,7.73
2019-02-14T08:24:30.415Z,8.30
2019-02-14T08:27:12.827Z,7.90
2019-02-14T08:29:55.079Z,7.23
2019-02-14T08:32:37.066Z,7.77
2019-02-14T08:35:19.167Z,7.93
2019-02-14T08:38:01.275Z,8.00
2019-02-14T08:40:43.370Z,7.10
2019-02-14T08:43:25.230Z,7.33
2019-02-14T08:46:07.269Z,7.00
2019-02-14T08:48:49.102Z,6.30
2019-02-14T08:51:32.566Z,6.23
2019-02-14T08:54:15.037Z,5.77
2019-02-14T08:56:56.887Z,6.43
2019-02-14T08:59:38.978Z,6.63
2019-02-14T09:02:21.162Z,5.17
2019-02-14T09:05:03.057Z,5.17
2019-02-14T09:07:53.909Z,4.60
2019-02-14T09:10:28.518Z,5.87
2019-02-14T09:13:17.314Z,4.00
2019-02-14T09:15:57.162Z,5.90
2019-02-14T09:18:39.135Z,3.70
2019-02-14T09:21:21.134Z,3.20
2019-02-14T09:24:03.426Z,3.00
2019-02-14T09:26:45.202Z,3.60
2019-02-14T09:29:26.934Z,5.50
2019-02-14T09:32:08.766Z,6.13
2019-02-14T09:34:51.022Z,6.43
2019-02-14T09:37:32.760Z,5.63
2019-02-14T09:40:14.870Z,5.13
2019-02-14T09:42:56.754Z,4.77
2019-02-14T09:45:38.590Z,3.80
2019-02-14T09:48:20.476Z,4.20
2019-02-14T09:51:02.518Z,3.50
2019-02-14T09:53:44.753Z,2.70
2019-02-14T09:56:26.688Z,2.20
2019-02-14T09:59:08.730Z,2.03
2019-02-14T10:01:50.683Z,2.23
2019-02-14T10:04:32.766Z,2.27
2019-02-14T10:07:15.246Z,2.27
2019-02-14T10:09:56.946Z,2.20
2019-02-14T10:12:39.155Z,1.90
2019-02-14T10:15:21.315Z,2.30
2019-02-14T10:18:03.092Z,2.00
2019-02-14T10:20:44.886Z,1.90
2019-02-14T10:23:27.934Z,1.80
2019-02-14T10:26:09.810Z,1.93
2019-02-14T10:28:51.794Z,6.40
2019-02-14T10:31:33.750Z,6.20
2019-02-14T10:34:15.470Z,5.23
2019-02-14T10:36:57.306Z,4.27
2019-02-14T10:39:39.346Z,16.70
2019-02-14T10:42:21.270Z,8.80
2019-02-14T10:45:02.878Z,2.90
2019-02-14T10:47:46.635Z,3.90
2019-02-14T10:50:28.538Z,2.37
2019-02-14T10:53:12.253Z,1.90
2019-02-14T10:55:55.014Z,2.07
2019-02-14T10:58:36.899Z,2.10
2019-02-14T11:01:18.685Z,3.10
2019-02-14T11:04:01.009Z,2.40
2019-02-14T11:06:43.197Z,2.30
2019-02-14T11:09:25.207Z,2.40
2019-02-14T11:12:07.619Z,2.23
2019-02-14T11:14:49.527Z,2.40
2019-02-14T11:17:31.411Z,2.33
2019-02-14T11:20:13.588Z,2.30
2019-02-14T11:22:57.542Z,2.10
2019-02-14T11:25:43.956Z,2.40
2019-02-14T11:28:25.871Z,2.27
2019-02-14T11:31:07.834Z,2.23
2019-02-14T11:33:49.675Z,2.20
2019-02-14T11:36:31.890Z,2.00
2019-02-14T11:39:13.834Z,2.20
2019-02-14T11:41:55.961Z,2.03
2019-02-14T11:44:39.748Z,2.00
2019-02-14T11:47:21.897Z,2.00
2019-02-14T11:50:06.478Z,1.90
2019-02-14T11:52:47.811Z,1.87
2019-02-14T11:55:30.203Z,2.23
2019-02-14T11:58:12.006Z,1.67
2019-02-14T12:00:54.338Z,1.80
2019-02-14T12:03:36.653Z,1.80
2019-02-14T12:06:18.670Z,1.83
2019-02-14T12:09:00.715Z,1.90
2019-02-14T12:11:42.618Z,1.80
2019-02-14T12:14:24.658Z,1.93
2019-02-14T12:17:06.798Z,1.70
2019-02-14T12:19:49.007Z,1.67
2019-02-14T12:22:29.559Z,1.70
2019-02-14T12:25:18.927Z,1.70
2019-02-14T12:28:02.502Z,1.80
2019-02-14T12:30:44.634Z,1.53
2019-02-14T12:33:26.730Z,1.90
2019-02-14T12:36:08.784Z,1.60
2019-02-14T12:38:50.982Z,1.73
2019-02-14T12:41:33.487Z,1.53
2019-02-14T12:44:15.341Z,2.13
2019-02-14T12:46:57.366Z,1.80
2019-02-14T12:49:39.130Z,1.63
2019-02-14T12:52:21.675Z,1.47
2019-02-14T12:55:04.235Z,1.60
2019-02-14T12:57:45.935Z,1.47
2019-02-14T13:00:27.922Z,1.60
2019-02-14T13:03:09.932Z,1.47
2019-02-14T13:05:51.650Z,1.63
2019-02-14T13:08:33.612Z,1.50
2019-02-14T13:11:15.434Z,1.80
2019-02-14T13:13:57.382Z,1.47
2019-02-14T13:16:39.635Z,1.80
2019-02-14T13:19:21.506Z,1.50
2019-02-14T13:22:04.088Z,1.53
2019-02-14T13:24:45.875Z,1.70
2019-02-14T13:27:27.706Z,1.57
2019-02-14T13:30:09.663Z,1.27
2019-02-14T13:32:51.622Z,1.63
2019-02-14T13:35:34.127Z,1.60
2019-02-14T13:38:16.202Z,1.50
2019-02-14T13:40:57.884Z,1.70
2019-02-14T13:43:39.583Z,1.40
2019-02-14T13:46:22.350Z,1.57
2019-02-14T13:49:04.247Z,2.77
2019-02-14T13:51:46.402Z,8.07
2019-02-14T13:54:28.050Z,1.87
2019-02-14T13:57:09.950Z,1.60
2019-02-14T13:59:52.178Z,1.60
2019-02-14T14:02:33.875Z,1.90
2019-02-14T14:05:15.937Z,2.80
2019-02-14T14:07:57.955Z,4.90
2019-02-14T14:10:39.779Z,3.00
2019-02-14T14:13:21.622Z,5.77
2019-02-14T14:16:03.443Z,9.57
2019-02-14T14:18:45.156Z,2.60
2019-02-14T14:21:27.074Z,6.33
2019-02-14T14:24:09.114Z,15.47
2019-02-14T14:26:50.822Z,6.30
2019-02-14T14:29:32.603Z,3.80
2019-02-14T14:32:15.074Z,2.03
2019-02-14T14:34:56.897Z,1.97
2019-02-14T14:37:38.946Z,2.00
2019-02-14T14:40:20.858Z,2.30
2019-02-14T14:43:21.778Z,2.17
2019-02-14T14:46:23.830Z,2.70
2019-02-14T14:49:05.830Z,2.70
2019-02-14T14:51:48.429Z,2.90
2019-02-14T14:54:30.206Z,8.97
2019-02-14T14:57:12.607Z,6.67
2019-02-14T14:59:54.455Z,3.67
2019-02-14T15:02:36.770Z,2.70
2019-02-14T15:05:18.422Z,5.90
2019-02-14T15:08:00.410Z,9.87
2019-02-14T15:10:42.227Z,11.30
2019-02-14T15:13:24.042Z,3.13
2019-02-14T15:16:06.033Z,2.67
2019-02-14T15:18:48.289Z,3.10
2019-02-14T15:21:30.439Z,3.13
2019-02-14T15:24:12.576Z,2.90
2019-02-14T15:26:54.858Z,3.60
2019-02-14T15:29:37.411Z,3.87
2019-02-14T15:32:19.881Z,3.23
2019-02-14T15:35:01.580Z,3.47
2019-02-14T15:37:44.440Z,3.27
2019-02-14T15:40:27.571Z,2.97
2019-02-14T15:43:08.129Z,2.80
2019-02-14T15:45:57.713Z,3.00
2019-02-14T15:48:40.928Z,3.10
2019-02-14T15:51:22.643Z,2.70
2019-02-14T15:54:04.632Z,3.10
2019-02-14T15:56:46.726Z,3.73
2019-02-14T15:59:28.915Z,4.10
2019-02-14T16:02:10.910Z,6.50
2019-02-14T16:04:54.800Z,16.00
2019-02-14T16:07:38.996Z,33.70
2019-02-14T16:10:21.323Z,32.73
2019-02-14T16:13:05.284Z,18.07
2019-02-14T16:15:47.035Z,13.00
2019-02-14T16:18:29.266Z,5.40
2019-02-14T16:21:11.142Z,4.27
2019-02-14T16:23:55.140Z,16.43
2019-02-14T16:26:38.889Z,16.30
2019-02-14T16:29:23.240Z,16.57
2019-02-14T16:32:05.630Z,14.93
2019-02-14T16:34:47.521Z,18.10
2019-02-14T16:37:29.515Z,8.20
2019-02-14T16:40:11.714Z,7.40
2019-02-14T16:42:53.654Z,6.70
2019-02-14T16:45:36.044Z,9.13
2019-02-14T16:48:18.080Z,7.07
2019-02-14T16:51:00.410Z,7.03
2019-02-14T16:53:42.224Z,6.93
2019-02-14T16:56:25.980Z,10.13
2019-02-14T16:59:07.556Z,8.93
2019-02-14T17:01:48.030Z,21.17
2019-02-14T17:04:37.461Z,41.27
2019-02-14T17:07:21.205Z,36.47
2019-02-14T17:10:03.425Z,31.47
2019-02-14T17:12:45.230Z,46.80
2019-02-14T17:15:27.072Z,41.43
2019-02-14T17:18:09.277Z,12.57
2019-02-14T17:20:52.098Z,10.97
2019-02-14T17:23:34.378Z,9.27
2019-02-14T17:26:16.448Z,9.27
2019-02-14T17:28:58.114Z,9.53
2019-02-14T17:31:40.083Z,9.63
2019-02-14T17:34:21.890Z,10.60
2019-02-14T17:37:03.623Z,11.23
2019-02-14T17:39:45.933Z,10.13
2019-02-14T17:42:28.623Z,9.03
2019-02-14T17:45:10.582Z,10.60
2019-02-14T17:47:52.363Z,10.87
2019-02-14T17:50:34.510Z,13.57
2019-02-14T17:53:17.007Z,13.70
2019-02-14T17:55:58.686Z,13.03
2019-02-14T17:58:40.891Z,11.07
2019-02-14T18:01:23.502Z,7.63
2019-02-14T18:04:05.158Z,10.20
2019-02-14T18:06:47.790Z,10.10
2019-02-14T18:09:30.434Z,10.80
2019-02-14T18:12:13.023Z,8.93
2019-02-14T18:14:54.686Z,11.80
2019-02-14T18:17:37.290Z,14.33
2019-02-14T18:20:19.210Z,16.83
2019-02-14T18:23:01.229Z,13.43
2019-02-14T18:25:43.234Z,16.47
2019-02-14T18:28:25.062Z,18.57
2019-02-14T18:31:07.721Z,27.10
2019-02-14T18:33:49.967Z,17.70
2019-02-14T18:36:31.862Z,21.10
2019-02-14T18:39:14.014Z,22.10
2019-02-14T18:41:55.919Z,16.00
2019-02-14T18:44:38.066Z,20.53
2019-02-14T18:47:20.442Z,14.53
2019-02-14T18:50:02.453Z,20.40
2019-02-14T18:52:44.639Z,22.97
2019-02-14T18:55:26.819Z,31.93
2019-02-14T18:58:09.038Z,26.43
2019-02-14T19:00:51.366Z,18.60
2019-02-14T19:03:33.518Z,17.40
2019-02-14T19:06:15.896Z,19.20
2019-02-14T19:08:57.854Z,14.47
2019-02-14T19:11:40.408Z,15.17
2019-02-14T19:14:22.563Z,16.03
2019-02-14T19:17:05.202Z,14.97
2019-02-14T19:19:48.562Z,16.57
2019-02-14T19:22:29.458Z,17.80
2019-02-14T19:25:19.268Z,16.43
2019-02-14T19:28:03.077Z,16.23
2019-02-14T19:30:45.694Z,18.83
2019-02-14T19:33:29.291Z,19.73
2019-02-14T19:36:11.442Z,16.73
2019-02-14T19:38:54.118Z,16.13
2019-02-14T19:41:36.779Z,13.57
2019-02-14T19:44:19.417Z,11.03
2019-02-14T19:47:01.527Z,12.27
2019-02-14T19:49:44.037Z,15.50
2019-02-14T19:55:47.482Z,18.50
2019-02-14T19:58:29.627Z,17.87
2019-02-14T20:01:11.483Z,15.73
2019-02-14T20:03:53.736Z,16.53
2019-02-14T20:06:35.791Z,18.00
2019-02-14T20:09:18.002Z,16.13
2019-02-14T20:12:00.102Z,15.63
2019-02-14T20:14:42.468Z,15.43
2019-02-14T20:17:24.530Z,20.93
2019-02-14T20:20:06.226Z,20.03
2019-02-14T20:22:48.185Z,19.20
2019-02-14T20:25:30.154Z,16.37
2019-02-14T20:28:12.270Z,16.00
2019-02-14T20:30:54.215Z,18.93
2019-02-14T20:33:36.182Z,19.57
2019-02-14T20:36:18.067Z,23.03
2019-02-14T20:39:00.103Z,24.03
2019-02-14T20:41:46.044Z,23.03
2019-02-14T20:44:26.359Z,22.50
2019-02-14T20:47:08.357Z,21.83
2019-02-14T20:49:50.471Z,22.20
2019-02-14T20:52:32.302Z,19.27
2019-02-14T20:55:14.578Z,18.53
2019-02-14T20:57:56.376Z,18.93
2019-02-14T21:00:38.551Z,19.10
2019-02-14T21:03:20.131Z,19.73
2019-02-14T21:06:03.182Z,17.00
2019-02-14T21:08:45.406Z,17.47
2019-02-14T21:11:27.246Z,18.50
2019-02-14T21:14:09.134Z,19.67
2019-02-14T21:16:51.290Z,18.47
2019-02-14T21:19:33.026Z,16.63
2019-02-14T21:22:18.571Z,15.10
2019-02-14T21:24:59.278Z,12.40
2019-02-14T21:27:41.211Z,19.10
2019-02-14T21:30:23.132Z,15.77
2019-02-14T21:33:05.040Z,12.03
2019-02-14T21:35:47.155Z,12.33
2019-02-14T21:38:29.350Z,12.10
2019-02-14T21:41:11.026Z,12.23
2019-02-14T21:43:41.392Z,12.37
2019-02-14T21:46:32.259Z,12.17
2019-02-14T21:49:15.977Z,10.93
2019-02-14T21:51:57.657Z,9.97
2019-02-14T21:54:39.708Z,8.17
2019-02-14T21:57:21.755Z,7.03
2019-02-14T22:00:03.551Z,8.53
2019-02-14T22:02:46.833Z,10.77
2019-02-14T22:05:28.758Z,10.27
2019-02-14T22:08:10.906Z,8.80
2019-02-14T22:10:52.966Z,8.73
2019-02-14T22:13:33.408Z,9.90
2019-02-14T22:16:22.832Z,10.10
2019-02-14T22:19:06.739Z,13.37
2019-02-14T22:21:48.754Z,13.37
2019-02-14T22:24:30.438Z,10.27
2019-02-14T22:27:12.642Z,10.07
2019-02-14T22:29:54.301Z,10.37
2019-02-14T22:32:36.066Z,11.70
2019-02-14T22:35:18.099Z,14.07
2019-02-14T22:38:00.157Z,13.23
2019-02-14T22:40:42.404Z,13.17
2019-02-14T22:43:24.641Z,12.10
2019-02-14T22:46:06.363Z,12.50
2019-02-14T22:48:48.467Z,12.57
2019-02-14T22:51:30.779Z,12.50
2019-02-14T22:54:13.167Z,12.53
2019-02-14T22:56:55.314Z,11.33
2019-02-14T22:59:37.018Z,13.13
2019-02-14T23:02:19.018Z,13.23
2019-02-14T23:05:00.946Z,11.03
2019-02-14T23:07:42.550Z,7.20
2019-02-14T23:10:25.373Z,9.23
2019-02-14T23:13:07.223Z,7.60
2019-02-14T23:15:49.227Z,7.93
2019-02-14T23:18:31.275Z,7.80
2019-02-14T23:21:13.146Z,8.80
2019-02-14T23:23:54.803Z,6.67
2019-02-14T23:26:36.746Z,8.30
2019-02-14T23:29:18.599Z,8.03
2019-02-14T23:32:00.454Z,7.97
2019-02-14T23:34:30.866Z,9.60
2019-02-14T23:37:21.671Z,11.00
2019-02-14T23:40:05.473Z,13.23
2019-02-14T23:42:47.571Z,15.33
2019-02-14T23:45:29.676Z,14.50
2019-02-14T23:48:11.492Z,10.40
2019-02-14T23:50:53.309Z,8.50
2019-02-14T23:53:35.631Z,7.07
2019-02-14T23:56:17.683Z,7.40
2019-02-14T23:59:00.047Z,7.93
